sensor_id;sensor_type;location;lat;lon;timestamp;temperature;humidity
46652;DHT22;32377;52.182;5.398;2023-08-20T00:02:08;18.70;99.90
46652;DHT22;32377;52.182;5.398;2023-08-20T00:04:36;18.70;99.90
46652;DHT22;32377;52.182;5.398;2023-08-20T00:07:02;18.70;99.90
46652;DHT22;32377;52.182;5.398;2023-08-20T00:09:28;18.60;99.90
46652;DHT22;32377;52.182;5.398;2023-08-20T00:11:55;18.60;99.90
46652;DHT22;32377;52.182;5.398;2023-08-20T00:17:24;18.60;99.90
46652;DHT22;32377;52.182;5.398;2023-08-20T00:19:55;18.60;99.90
46652;DHT22;32377;52.182;5.398;2023-08-20T00:22:22;18.60;99.90
46652;DHT22;32377;52.182;5.398;2023-08-20T00:24:49;18.70;99.90
46652;DHT22;32377;52.182;5.398;2023-08-20T00:27:15;18.80;99.90
46652;DHT22;32377;52.182;5.398;2023-08-20T00:29:41;18.80;99.90
46652;DHT22;32377;52.182;5.398;2023-08-20T00:32:06;18.80;99.90
46652;DHT22;32377;52.182;5.398;2023-08-20T00:34:33;18.70;99.90
46652;DHT22;32377;52.182;5.398;2023-08-20T00:36:58;18.60;99.90
46652;DHT22;32377;52.182;5.398;2023-08-20T00:39:24;18.60;99.90
46652;DHT22;32377;52.182;5.398;2023-08-20T00:41:50;18.50;99.90
46652;DHT22;32377;52.182;5.398;2023-08-20T00:44:15;18.40;99.90
46652;DHT22;32377;52.182;5.398;2023-08-20T00:46:41;18.40;99.90
46652;DHT22;32377;52.182;5.398;2023-08-20T00:49:07;18.30;99.90
46652;DHT22;32377;52.182;5.398;2023-08-20T00:51:33;18.40;99.90
46652;DHT22;32377;52.182;5.398;2023-08-20T00:54:00;18.40;99.90
46652;DHT22;32377;52.182;5.398;2023-08-20T00:56:26;18.40;99.90
46652;DHT22;32377;52.182;5.398;2023-08-20T00:58:53;18.40;99.90
46652;DHT22;32377;52.182;5.398;2023-08-20T01:01:20;18.40;99.90
46652;DHT22;32377;52.182;5.398;2023-08-20T01:03:45;18.40;99.90
46652;DHT22;32377;52.182;5.398;2023-08-20T01:11:57;18.20;99.90
46652;DHT22;32377;52.182;5.398;2023-08-20T01:14:24;18.20;99.90
46652;DHT22;32377;52.182;5.398;2023-08-20T01:16:50;18.20;99.90
46652;DHT22;32377;52.182;5.398;2023-08-20T01:19:17;18.20;99.90
46652;DHT22;32377;52.182;5.398;2023-08-20T01:29:45;18.10;99.90
46652;DHT22;32377;52.182;5.398;2023-08-20T01:32:12;18.30;99.90
46652;DHT22;32377;52.182;5.398;2023-08-20T01:34:38;18.30;99.90
46652;DHT22;32377;52.182;5.398;2023-08-20T01:37:04;18.40;99.90
46652;DHT22;32377;52.182;5.398;2023-08-20T01:39:29;18.30;99.90
46652;DHT22;32377;52.182;5.398;2023-08-20T01:41:55;18.30;99.90
46652;DHT22;32377;52.182;5.398;2023-08-20T01:44:20;18.10;99.90
46652;DHT22;32377;52.182;5.398;2023-08-20T01:46:46;18.10;99.90
46652;DHT22;32377;52.182;5.398;2023-08-20T01:49:11;18.10;99.90
46652;DHT22;32377;52.182;5.398;2023-08-20T01:51:37;18.00;99.90
46652;DHT22;32377;52.182;5.398;2023-08-20T01:54:03;18.00;99.90
46652;DHT22;32377;52.182;5.398;2023-08-20T01:56:28;17.90;99.90
46652;DHT22;32377;52.182;5.398;2023-08-20T01:58:54;17.90;99.90
46652;DHT22;32377;52.182;5.398;2023-08-20T02:01:20;17.90;99.90
46652;DHT22;32377;52.182;5.398;2023-08-20T02:03:45;17.90;99.90
46652;DHT22;32377;52.182;5.398;2023-08-20T02:06:11;17.90;99.90
46652;DHT22;32377;52.182;5.398;2023-08-20T02:08:37;17.90;99.90
46652;DHT22;32377;52.182;5.398;2023-08-20T02:11:03;18.00;99.90
46652;DHT22;32377;52.182;5.398;2023-08-20T02:13:29;18.00;99.90
46652;DHT22;32377;52.182;5.398;2023-08-20T02:16:02;18.00;99.90
46652;DHT22;32377;52.182;5.398;2023-08-20T02:18:29;17.90;99.90
46652;DHT22;32377;52.182;5.398;2023-08-20T02:20:55;17.90;99.90
46652;DHT22;32377;52.182;5.398;2023-08-20T02:23:20;17.90;99.90
46652;DHT22;32377;52.182;5.398;2023-08-20T02:25:46;17.80;99.90
46652;DHT22;32377;52.182;5.398;2023-08-20T02:28:12;17.70;99.90
46652;DHT22;32377;52.182;5.398;2023-08-20T02:30:43;17.60;99.90
46652;DHT22;32377;52.182;5.398;2023-08-20T02:33:09;17.50;99.90
46652;DHT22;32377;52.182;5.398;2023-08-20T02:35:36;17.50;99.90
46652;DHT22;32377;52.182;5.398;2023-08-20T02:38:02;17.40;99.90
46652;DHT22;32377;52.182;5.398;2023-08-20T02:40:27;17.40;99.90
46652;DHT22;32377;52.182;5.398;2023-08-20T02:42:53;17.40;99.90
46652;DHT22;32377;52.182;5.398;2023-08-20T02:45:19;17.30;99.90
46652;DHT22;32377;52.182;5.398;2023-08-20T02:47:44;17.30;99.90
46652;DHT22;32377;52.182;5.398;2023-08-20T02:50:10;17.20;99.90
46652;DHT22;32377;52.182;5.398;2023-08-20T02:52:36;17.30;99.90
46652;DHT22;32377;52.182;5.398;2023-08-20T02:55:01;17.20;99.90
46652;DHT22;32377;52.182;5.398;2023-08-20T02:57:28;17.20;99.90
46652;DHT22;32377;52.182;5.398;2023-08-20T02:59:54;17.20;99.90
46652;DHT22;32377;52.182;5.398;2023-08-20T03:02:19;17.20;99.90
46652;DHT22;32377;52.182;5.398;2023-08-20T03:04:45;17.10;99.90
46652;DHT22;32377;52.182;5.398;2023-08-20T03:07:10;17.20;99.90
46652;DHT22;32377;52.182;5.398;2023-08-20T03:09:36;17.10;99.90
46652;DHT22;32377;52.182;5.398;2023-08-20T03:12:02;17.10;99.90
46652;DHT22;32377;52.182;5.398;2023-08-20T03:14:27;17.10;99.90
46652;DHT22;32377;52.182;5.398;2023-08-20T03:16:53;17.00;99.90
46652;DHT22;32377;52.182;5.398;2023-08-20T03:19:18;17.00;99.90
46652;DHT22;32377;52.182;5.398;2023-08-20T03:21:44;17.00;99.90
46652;DHT22;32377;52.182;5.398;2023-08-20T03:24:09;16.90;99.90
46652;DHT22;32377;52.182;5.398;2023-08-20T03:26:35;16.90;99.90
46652;DHT22;32377;52.182;5.398;2023-08-20T03:29:01;16.90;99.90
46652;DHT22;32377;52.182;5.398;2023-08-20T03:31:26;16.90;99.90
46652;DHT22;32377;52.182;5.398;2023-08-20T03:33:52;16.90;99.90
46652;DHT22;32377;52.182;5.398;2023-08-20T03:36:18;16.90;99.90
46652;DHT22;32377;52.182;5.398;2023-08-20T03:38:43;16.90;99.90
46652;DHT22;32377;52.182;5.398;2023-08-20T03:41:09;16.90;99.90
46652;DHT22;32377;52.182;5.398;2023-08-20T03:43:34;16.80;99.90
46652;DHT22;32377;52.182;5.398;2023-08-20T03:46:01;17.00;99.90
46652;DHT22;32377;52.182;5.398;2023-08-20T03:48:27;17.00;99.90
46652;DHT22;32377;52.182;5.398;2023-08-20T03:50:53;17.10;99.90
46652;DHT22;32377;52.182;5.398;2023-08-20T03:53:18;17.20;99.90
46652;DHT22;32377;52.182;5.398;2023-08-20T03:55:48;17.20;99.90
46652;DHT22;32377;52.182;5.398;2023-08-20T03:58:14;17.20;99.90
46652;DHT22;32377;52.182;5.398;2023-08-20T04:00:40;17.20;99.90
46652;DHT22;32377;52.182;5.398;2023-08-20T04:03:05;17.20;99.90
46652;DHT22;32377;52.182;5.398;2023-08-20T04:05:38;17.20;99.90
46652;DHT22;32377;52.182;5.398;2023-08-20T04:08:05;17.10;99.90
46652;DHT22;32377;52.182;5.398;2023-08-20T04:10:31;17.10;99.90
46652;DHT22;32377;52.182;5.398;2023-08-20T04:12:58;17.00;99.90
46652;DHT22;32377;52.182;5.398;2023-08-20T04:15:23;17.00;99.90
46652;DHT22;32377;52.182;5.398;2023-08-20T04:17:49;16.90;99.90
46652;DHT22;32377;52.182;5.398;2023-08-20T04:20:15;16.90;99.90
46652;DHT22;32377;52.182;5.398;2023-08-20T04:22:41;16.90;99.90
46652;DHT22;32377;52.182;5.398;2023-08-20T04:25:07;16.80;99.90
46652;DHT22;32377;52.182;5.398;2023-08-20T04:27:33;16.80;99.90
46652;DHT22;32377;52.182;5.398;2023-08-20T04:29:59;16.80;99.90
46652;DHT22;32377;52.182;5.398;2023-08-20T04:32:24;16.80;99.90
46652;DHT22;32377;52.182;5.398;2023-08-20T04:34:50;16.80;99.90
46652;DHT22;32377;52.182;5.398;2023-08-20T04:37:19;16.70;99.90
46652;DHT22;32377;52.182;5.398;2023-08-20T04:39:44;16.80;99.90
46652;DHT22;32377;52.182;5.398;2023-08-20T04:42:10;16.70;99.90
46652;DHT22;32377;52.182;5.398;2023-08-20T04:44:35;16.80;99.90
46652;DHT22;32377;52.182;5.398;2023-08-20T04:47:01;16.70;99.90
46652;DHT22;32377;52.182;5.398;2023-08-20T04:49:27;16.70;99.90
46652;DHT22;32377;52.182;5.398;2023-08-20T04:51:54;16.70;99.90
46652;DHT22;32377;52.182;5.398;2023-08-20T04:54:19;16.60;99.90
46652;DHT22;32377;52.182;5.398;2023-08-20T04:56:45;16.70;99.90
46652;DHT22;32377;52.182;5.398;2023-08-20T04:59:11;16.60;99.90
46652;DHT22;32377;52.182;5.398;2023-08-20T05:01:38;16.60;99.90
46652;DHT22;32377;52.182;5.398;2023-08-20T05:04:03;16.60;99.90
46652;DHT22;32377;52.182;5.398;2023-08-20T05:06:29;16.60;99.90
46652;DHT22;32377;52.182;5.398;2023-08-20T05:08:55;16.70;99.90
46652;DHT22;32377;52.182;5.398;2023-08-20T05:11:20;16.60;99.90
46652;DHT22;32377;52.182;5.398;2023-08-20T05:13:49;16.70;99.90
46652;DHT22;32377;52.182;5.398;2023-08-20T05:16:15;16.60;99.90
46652;DHT22;32377;52.182;5.398;2023-08-20T05:18:40;16.60;99.90
46652;DHT22;32377;52.182;5.398;2023-08-20T05:21:06;16.60;99.90
46652;DHT22;32377;52.182;5.398;2023-08-20T05:23:32;16.60;99.90
46652;DHT22;32377;52.182;5.398;2023-08-20T05:25:57;16.60;99.90
46652;DHT22;32377;52.182;5.398;2023-08-20T05:28:23;16.60;99.90
46652;DHT22;32377;52.182;5.398;2023-08-20T05:30:58;16.60;99.90
46652;DHT22;32377;52.182;5.398;2023-08-20T05:33:24;16.60;99.90
46652;DHT22;32377;52.182;5.398;2023-08-20T05:35:53;16.60;99.90
46652;DHT22;32377;52.182;5.398;2023-08-20T05:38:19;16.70;99.90
46652;DHT22;32377;52.182;5.398;2023-08-20T05:40:45;16.90;99.90
46652;DHT22;32377;52.182;5.398;2023-08-20T05:43:10;16.90;99.90
46652;DHT22;32377;52.182;5.398;2023-08-20T05:45:39;17.00;99.90
46652;DHT22;32377;52.182;5.398;2023-08-20T05:48:05;17.10;99.90
46652;DHT22;32377;52.182;5.398;2023-08-20T05:50:30;17.20;99.90
46652;DHT22;32377;52.182;5.398;2023-08-20T05:53:03;17.30;99.90
46652;DHT22;32377;52.182;5.398;2023-08-20T05:55:29;17.40;99.90
46652;DHT22;32377;52.182;5.398;2023-08-20T05:57:55;17.50;99.90
46652;DHT22;32377;52.182;5.398;2023-08-20T06:00:26;17.70;99.90
46652;DHT22;32377;52.182;5.398;2023-08-20T06:02:55;17.80;99.90
46652;DHT22;32377;52.182;5.398;2023-08-20T06:05:20;17.90;99.90
46652;DHT22;32377;52.182;5.398;2023-08-20T06:07:52;18.00;99.90
46652;DHT22;32377;52.182;5.398;2023-08-20T06:10:18;18.10;99.90
46652;DHT22;32377;52.182;5.398;2023-08-20T06:12:44;18.30;99.90
46652;DHT22;32377;52.182;5.398;2023-08-20T06:15:09;18.40;99.90
46652;DHT22;32377;52.182;5.398;2023-08-20T06:17:35;18.60;99.90
46652;DHT22;32377;52.182;5.398;2023-08-20T06:20:01;18.70;99.90
46652;DHT22;32377;52.182;5.398;2023-08-20T06:22:27;18.80;99.90
46652;DHT22;32377;52.182;5.398;2023-08-20T06:24:52;18.90;99.90
46652;DHT22;32377;52.182;5.398;2023-08-20T06:27:18;19.00;99.90
46652;DHT22;32377;52.182;5.398;2023-08-20T06:29:44;19.20;99.90
46652;DHT22;32377;52.182;5.398;2023-08-20T06:32:09;19.30;99.90
46652;DHT22;32377;52.182;5.398;2023-08-20T06:34:35;19.40;99.90
46652;DHT22;32377;52.182;5.398;2023-08-20T06:37:01;19.50;99.90
46652;DHT22;32377;52.182;5.398;2023-08-20T06:39:27;19.60;99.90
46652;DHT22;32377;52.182;5.398;2023-08-20T06:41:53;19.70;99.90
46652;DHT22;32377;52.182;5.398;2023-08-20T06:44:18;19.70;99.90
46652;DHT22;32377;52.182;5.398;2023-08-20T06:46:44;19.70;99.90
46652;DHT22;32377;52.182;5.398;2023-08-20T06:49:09;19.80;99.90
46652;DHT22;32377;52.182;5.398;2023-08-20T06:51:35;19.90;99.90
46652;DHT22;32377;52.182;5.398;2023-08-20T06:54:01;20.10;99.90
46652;DHT22;32377;52.182;5.398;2023-08-20T06:56:27;20.10;99.90
46652;DHT22;32377;52.182;5.398;2023-08-20T06:58:53;20.30;99.90
46652;DHT22;32377;52.182;5.398;2023-08-20T07:01:19;20.40;99.90
46652;DHT22;32377;52.182;5.398;2023-08-20T07:03:45;20.40;99.90
46652;DHT22;32377;52.182;5.398;2023-08-20T07:06:11;20.50;99.90
46652;DHT22;32377;52.182;5.398;2023-08-20T07:08:39;20.60;99.40
46652;DHT22;32377;52.182;5.398;2023-08-20T07:11:06;20.70;99.20
46652;DHT22;32377;52.182;5.398;2023-08-20T07:13:32;20.80;98.80
46652;DHT22;32377;52.182;5.398;2023-08-20T07:15:57;20.90;97.60
46652;DHT22;32377;52.182;5.398;2023-08-20T07:18:23;21.00;97.10
46652;DHT22;32377;52.182;5.398;2023-08-20T07:20:50;21.10;96.00
46652;DHT22;32377;52.182;5.398;2023-08-20T07:23:17;21.20;95.40
46652;DHT22;32377;52.182;5.398;2023-08-20T07:25:42;21.30;94.40
46652;DHT22;32377;52.182;5.398;2023-08-20T07:28:10;21.40;94.50
46652;DHT22;32377;52.182;5.398;2023-08-20T07:30:36;21.50;93.50
46652;DHT22;32377;52.182;5.398;2023-08-20T07:33:03;21.50;93.10
46652;DHT22;32377;52.182;5.398;2023-08-20T07:35:28;21.50;92.90
46652;DHT22;32377;52.182;5.398;2023-08-20T07:37:54;21.60;92.50
46652;DHT22;32377;52.182;5.398;2023-08-20T07:40:20;21.60;92.70
46652;DHT22;32377;52.182;5.398;2023-08-20T07:42:46;21.70;92.20
46652;DHT22;32377;52.182;5.398;2023-08-20T07:45:12;21.80;92.00
46652;DHT22;32377;52.182;5.398;2023-08-20T07:47:38;21.90;91.60
46652;DHT22;32377;52.182;5.398;2023-08-20T07:50:05;21.90;91.50
46652;DHT22;32377;52.182;5.398;2023-08-20T07:52:34;21.90;91.10
46652;DHT22;32377;52.182;5.398;2023-08-20T07:55:00;21.90;91.30
46652;DHT22;32377;52.182;5.398;2023-08-20T07:57:26;21.90;90.90
46652;DHT22;32377;52.182;5.398;2023-08-20T07:59:52;21.90;89.70
46652;DHT22;32377;52.182;5.398;2023-08-20T08:02:18;22.00;87.50
46652;DHT22;32377;52.182;5.398;2023-08-20T08:04:43;22.00;87.70
46652;DHT22;32377;52.182;5.398;2023-08-20T08:07:10;22.00;85.50
46652;DHT22;32377;52.182;5.398;2023-08-20T08:09:36;22.10;85.70
46652;DHT22;32377;52.182;5.398;2023-08-20T08:12:02;22.20;86.20
46652;DHT22;32377;52.182;5.398;2023-08-20T08:14:28;22.20;86.50
46652;DHT22;32377;52.182;5.398;2023-08-20T08:16:54;22.30;85.40
46652;DHT22;32377;52.182;5.398;2023-08-20T08:19:19;22.40;84.00
46652;DHT22;32377;52.182;5.398;2023-08-20T08:21:46;22.40;81.60
46652;DHT22;32377;52.182;5.398;2023-08-20T08:24:12;22.40;81.70
46652;DHT22;32377;52.182;5.398;2023-08-20T08:26:39;22.40;80.20
46652;DHT22;32377;52.182;5.398;2023-08-20T08:29:05;22.30;79.80
46652;DHT22;32377;52.182;5.398;2023-08-20T08:31:31;22.40;81.10
46652;DHT22;32377;52.182;5.398;2023-08-20T08:33:57;22.40;80.90
46652;DHT22;32377;52.182;5.398;2023-08-20T08:36:23;22.40;79.60
46652;DHT22;32377;52.182;5.398;2023-08-20T08:38:51;22.50;77.50
46652;DHT22;32377;52.182;5.398;2023-08-20T08:41:17;22.70;78.70
46652;DHT22;32377;52.182;5.398;2023-08-20T08:43:43;22.70;77.70
46652;DHT22;32377;52.182;5.398;2023-08-20T08:46:13;22.80;75.40
46652;DHT22;32377;52.182;5.398;2023-08-20T08:48:45;22.90;74.80
46652;DHT22;32377;52.182;5.398;2023-08-20T08:51:13;23.00;75.90
46652;DHT22;32377;52.182;5.398;2023-08-20T08:53:39;23.10;76.80
46652;DHT22;32377;52.182;5.398;2023-08-20T08:56:04;23.10;71.80
46652;DHT22;32377;52.182;5.398;2023-08-20T08:58:33;23.10;70.80
46652;DHT22;32377;52.182;5.398;2023-08-20T09:00:59;23.10;72.10
46652;DHT22;32377;52.182;5.398;2023-08-20T09:03:24;23.10;72.70
46652;DHT22;32377;52.182;5.398;2023-08-20T09:06:07;23.10;70.90
46652;DHT22;32377;52.182;5.398;2023-08-20T09:08:33;23.20;70.90
46652;DHT22;32377;52.182;5.398;2023-08-20T09:11:01;23.20;69.20
46652;DHT22;32377;52.182;5.398;2023-08-20T09:13:38;23.30;69.00
46652;DHT22;32377;52.182;5.398;2023-08-20T09:16:08;23.30;66.70
46652;DHT22;32377;52.182;5.398;2023-08-20T09:18:46;23.30;67.00
46652;DHT22;32377;52.182;5.398;2023-08-20T09:21:13;23.50;67.00
46652;DHT22;32377;52.182;5.398;2023-08-20T09:23:39;23.50;65.50
46652;DHT22;32377;52.182;5.398;2023-08-20T09:26:06;23.40;65.20
46652;DHT22;32377;52.182;5.398;2023-08-20T09:28:45;23.50;66.00
46652;DHT22;32377;52.182;5.398;2023-08-20T09:31:12;23.50;62.20
46652;DHT22;32377;52.182;5.398;2023-08-20T09:33:58;23.60;63.90
46652;DHT22;32377;52.182;5.398;2023-08-20T09:36:32;23.60;64.70
46652;DHT22;32377;52.182;5.398;2023-08-20T09:38:58;23.70;62.50
46652;DHT22;32377;52.182;5.398;2023-08-20T09:41:24;23.90;63.80
46652;DHT22;32377;52.182;5.398;2023-08-20T09:43:56;23.90;62.60
46652;DHT22;32377;52.182;5.398;2023-08-20T09:46:24;23.90;61.50
46652;DHT22;32377;52.182;5.398;2023-08-20T09:48:51;23.90;59.70
46652;DHT22;32377;52.182;5.398;2023-08-20T09:51:21;24.00;61.90
46652;DHT22;32377;52.182;5.398;2023-08-20T09:54:08;24.00;60.70
46652;DHT22;32377;52.182;5.398;2023-08-20T09:56:39;24.20;61.50
46652;DHT22;32377;52.182;5.398;2023-08-20T09:59:05;24.10;59.50
46652;DHT22;32377;52.182;5.398;2023-08-20T10:01:32;24.20;61.00
46652;DHT22;32377;52.182;5.398;2023-08-20T10:03:58;24.20;62.30
46652;DHT22;32377;52.182;5.398;2023-08-20T10:06:25;24.30;60.60
46652;DHT22;32377;52.182;5.398;2023-08-20T10:08:51;24.40;62.00
46652;DHT22;32377;52.182;5.398;2023-08-20T10:11:18;24.50;60.00
46652;DHT22;32377;52.182;5.398;2023-08-20T10:13:44;24.50;58.00
46652;DHT22;32377;52.182;5.398;2023-08-20T10:16:13;24.40;56.50
46652;DHT22;32377;52.182;5.398;2023-08-20T10:18:39;24.20;56.40
46652;DHT22;32377;52.182;5.398;2023-08-20T10:21:05;24.10;57.80
46652;DHT22;32377;52.182;5.398;2023-08-20T10:23:33;24.10;59.50
46652;DHT22;32377;52.182;5.398;2023-08-20T10:26:09;24.20;59.90
46652;DHT22;32377;52.182;5.398;2023-08-20T10:28:35;24.30;59.10
46652;DHT22;32377;52.182;5.398;2023-08-20T10:31:15;24.50;60.10
46652;DHT22;32377;52.182;5.398;2023-08-20T10:36:22;24.60;58.50
46652;DHT22;32377;52.182;5.398;2023-08-20T10:38:53;24.60;57.30
46652;DHT22;32377;52.182;5.398;2023-08-20T10:41:27;24.60;57.20
46652;DHT22;32377;52.182;5.398;2023-08-20T10:43:57;24.80;56.30
46652;DHT22;32377;52.182;5.398;2023-08-20T10:46:24;24.80;55.50
46652;DHT22;32377;52.182;5.398;2023-08-20T10:56:53;25.00;55.00
46652;DHT22;32377;52.182;5.398;2023-08-20T10:59:25;24.90;51.90
46652;DHT22;32377;52.182;5.398;2023-08-20T11:01:53;24.90;53.60
46652;DHT22;32377;52.182;5.398;2023-08-20T11:04:22;24.90;51.70
46652;DHT22;32377;52.182;5.398;2023-08-20T11:06:56;25.00;55.30
46652;DHT22;32377;52.182;5.398;2023-08-20T11:09:23;25.20;55.10
46652;DHT22;32377;52.182;5.398;2023-08-20T11:11:50;25.30;53.20
46652;DHT22;32377;52.182;5.398;2023-08-20T11:14:18;25.40;55.60
46652;DHT22;32377;52.182;5.398;2023-08-20T11:16:45;25.40;51.10
46652;DHT22;32377;52.182;5.398;2023-08-20T11:19:12;25.40;52.80
46652;DHT22;32377;52.182;5.398;2023-08-20T11:21:40;25.60;52.10
46652;DHT22;32377;52.182;5.398;2023-08-20T11:24:09;25.60;51.60
46652;DHT22;32377;52.182;5.398;2023-08-20T11:26:35;25.50;47.40
46652;DHT22;32377;52.182;5.398;2023-08-20T11:29:06;25.60;49.10
46652;DHT22;32377;52.182;5.398;2023-08-20T11:31:31;25.50;48.80
46652;DHT22;32377;52.182;5.398;2023-08-20T11:33:57;25.60;50.50
46652;DHT22;32377;52.182;5.398;2023-08-20T11:36:23;25.70;49.30
46652;DHT22;32377;52.182;5.398;2023-08-20T11:38:53;25.70;49.10
46652;DHT22;32377;52.182;5.398;2023-08-20T11:41:20;25.80;46.50
46652;DHT22;32377;52.182;5.398;2023-08-20T11:43:49;25.50;46.50
46652;DHT22;32377;52.182;5.398;2023-08-20T11:46:17;25.40;47.70
46652;DHT22;32377;52.182;5.398;2023-08-20T11:51:38;25.50;56.20
46652;DHT22;32377;52.182;5.398;2023-08-20T11:54:08;25.60;49.60
46652;DHT22;32377;52.182;5.398;2023-08-20T11:56:34;25.60;43.60
46652;DHT22;32377;52.182;5.398;2023-08-20T11:59:01;25.50;45.90
46652;DHT22;32377;52.182;5.398;2023-08-20T12:01:33;25.40;45.70
46652;DHT22;32377;52.182;5.398;2023-08-20T12:04:04;25.40;47.20
46652;DHT22;32377;52.182;5.398;2023-08-20T12:06:30;25.40;45.00
46652;DHT22;32377;52.182;5.398;2023-08-20T12:08:57;25.40;47.10
46652;DHT22;32377;52.182;5.398;2023-08-20T12:11:30;25.40;46.10
46652;DHT22;32377;52.182;5.398;2023-08-20T12:13:56;25.50;46.40
46652;DHT22;32377;52.182;5.398;2023-08-20T12:16:23;25.70;52.50
46652;DHT22;32377;52.182;5.398;2023-08-20T12:18:49;25.90;46.30
46652;DHT22;32377;52.182;5.398;2023-08-20T12:21:15;26.00;44.90
46652;DHT22;32377;52.182;5.398;2023-08-20T12:23:41;25.90;42.50
46652;DHT22;32377;52.182;5.398;2023-08-20T12:26:07;25.90;43.90
46652;DHT22;32377;52.182;5.398;2023-08-20T12:28:35;25.90;44.70
46652;DHT22;32377;52.182;5.398;2023-08-20T12:31:01;26.00;44.80
46652;DHT22;32377;52.182;5.398;2023-08-20T12:33:28;25.90;44.70
46652;DHT22;32377;52.182;5.398;2023-08-20T12:35:54;26.00;44.10
46652;DHT22;32377;52.182;5.398;2023-08-20T12:38:20;26.10;46.30
46652;DHT22;32377;52.182;5.398;2023-08-20T12:40:46;26.20;47.80
46652;DHT22;32377;52.182;5.398;2023-08-20T12:43:12;26.20;46.70
46652;DHT22;32377;52.182;5.398;2023-08-20T12:45:37;26.50;43.20
46652;DHT22;32377;52.182;5.398;2023-08-20T12:48:04;26.70;43.90
46652;DHT22;32377;52.182;5.398;2023-08-20T12:50:30;26.80;43.50
46652;DHT22;32377;52.182;5.398;2023-08-20T12:52:56;26.90;42.50
46652;DHT22;32377;52.182;5.398;2023-08-20T12:55:22;27.10;40.20
46652;DHT22;32377;52.182;5.398;2023-08-20T12:57:59;27.00;39.40
46652;DHT22;32377;52.182;5.398;2023-08-20T13:00:25;27.10;42.20
46652;DHT22;32377;52.182;5.398;2023-08-20T13:02:53;27.10;40.80
46652;DHT22;32377;52.182;5.398;2023-08-20T13:05:21;27.40;40.80
46652;DHT22;32377;52.182;5.398;2023-08-20T13:07:47;27.40;40.70
46652;DHT22;32377;52.182;5.398;2023-08-20T13:10:13;27.40;39.20
46652;DHT22;32377;52.182;5.398;2023-08-20T13:12:41;27.30;41.60
46652;DHT22;32377;52.182;5.398;2023-08-20T13:15:08;27.10;40.60
46652;DHT22;32377;52.182;5.398;2023-08-20T13:17:35;27.10;46.10
46652;DHT22;32377;52.182;5.398;2023-08-20T13:20:01;27.00;41.50
46652;DHT22;32377;52.182;5.398;2023-08-20T13:22:26;26.80;41.10
46652;DHT22;32377;52.182;5.398;2023-08-20T13:24:52;26.90;43.20
46652;DHT22;32377;52.182;5.398;2023-08-20T13:27:17;26.80;41.10
46652;DHT22;32377;52.182;5.398;2023-08-20T13:29:43;26.80;41.40
46652;DHT22;32377;52.182;5.398;2023-08-20T13:32:09;27.10;43.60
46652;DHT22;32377;52.182;5.398;2023-08-20T13:34:35;27.30;39.70
46652;DHT22;32377;52.182;5.398;2023-08-20T13:37:00;27.50;40.70
46652;DHT22;32377;52.182;5.398;2023-08-20T13:39:26;27.70;44.10
46652;DHT22;32377;52.182;5.398;2023-08-20T13:41:52;27.90;41.90
46652;DHT22;32377;52.182;5.398;2023-08-20T13:44:19;28.00;41.60
46652;DHT22;32377;52.182;5.398;2023-08-20T13:46:45;28.10;38.50
46652;DHT22;32377;52.182;5.398;2023-08-20T13:49:10;28.00;39.90
46652;DHT22;32377;52.182;5.398;2023-08-20T13:51:36;27.70;40.10
46652;DHT22;32377;52.182;5.398;2023-08-20T13:54:02;27.10;40.30
46652;DHT22;32377;52.182;5.398;2023-08-20T13:56:27;26.90;39.30
46652;DHT22;32377;52.182;5.398;2023-08-20T13:58:54;27.00;45.30
46652;DHT22;32377;52.182;5.398;2023-08-20T14:01:19;26.90;39.40
46652;DHT22;32377;52.182;5.398;2023-08-20T14:03:45;26.60;39.60
46652;DHT22;32377;52.182;5.398;2023-08-20T14:06:11;26.90;41.40
46652;DHT22;32377;52.182;5.398;2023-08-20T14:08:36;27.10;40.80
46652;DHT22;32377;52.182;5.398;2023-08-20T14:11:02;27.10;40.20
46652;DHT22;32377;52.182;5.398;2023-08-20T14:13:28;27.10;42.30
46652;DHT22;32377;52.182;5.398;2023-08-20T14:15:54;27.10;40.20
46652;DHT22;32377;52.182;5.398;2023-08-20T14:18:20;27.10;40.20
46652;DHT22;32377;52.182;5.398;2023-08-20T14:20:46;27.10;39.70
46652;DHT22;32377;52.182;5.398;2023-08-20T14:23:11;26.90;39.60
46652;DHT22;32377;52.182;5.398;2023-08-20T14:25:37;26.60;41.10
46652;DHT22;32377;52.182;5.398;2023-08-20T14:28:06;26.50;40.90
46652;DHT22;32377;52.182;5.398;2023-08-20T14:30:35;26.50;41.50
46652;DHT22;32377;52.182;5.398;2023-08-20T14:33:01;26.50;42.10
46652;DHT22;32377;52.182;5.398;2023-08-20T14:35:26;26.60;41.60
46652;DHT22;32377;52.182;5.398;2023-08-20T14:37:53;26.60;41.40
46652;DHT22;32377;52.182;5.398;2023-08-20T14:40:19;26.50;40.40
46652;DHT22;32377;52.182;5.398;2023-08-20T14:42:45;26.50;41.40
46652;DHT22;32377;52.182;5.398;2023-08-20T14:45:10;26.30;40.70
46652;DHT22;32377;52.182;5.398;2023-08-20T14:47:36;26.10;39.20
46652;DHT22;32377;52.182;5.398;2023-08-20T14:50:02;26.10;41.80
46652;DHT22;32377;52.182;5.398;2023-08-20T14:52:28;26.20;42.90
46652;DHT22;32377;52.182;5.398;2023-08-20T14:54:54;26.30;42.00
46652;DHT22;32377;52.182;5.398;2023-08-20T14:57:19;26.40;42.60
46652;DHT22;32377;52.182;5.398;2023-08-20T14:59:45;26.50;42.40
46652;DHT22;32377;52.182;5.398;2023-08-20T15:02:10;26.60;42.70
46652;DHT22;32377;52.182;5.398;2023-08-20T15:04:36;26.50;42.50
46652;DHT22;32377;52.182;5.398;2023-08-20T15:07:01;26.40;42.80
46652;DHT22;32377;52.182;5.398;2023-08-20T15:09:28;26.40;40.90
46652;DHT22;32377;52.182;5.398;2023-08-20T15:11:54;26.30;40.20
46652;DHT22;32377;52.182;5.398;2023-08-20T15:14:21;26.20;41.80
46652;DHT22;32377;52.182;5.398;2023-08-20T15:16:46;26.20;40.70
46652;DHT22;32377;52.182;5.398;2023-08-20T15:19:12;26.10;41.00
46652;DHT22;32377;52.182;5.398;2023-08-20T15:21:38;26.00;41.70
46652;DHT22;32377;52.182;5.398;2023-08-20T15:24:03;26.10;43.50
46652;DHT22;32377;52.182;5.398;2023-08-20T15:26:29;26.00;41.40
46652;DHT22;32377;52.182;5.398;2023-08-20T15:28:55;25.90;43.30
46652;DHT22;32377;52.182;5.398;2023-08-20T15:31:20;25.90;42.10
46652;DHT22;32377;52.182;5.398;2023-08-20T15:33:47;25.80;42.90
46652;DHT22;32377;52.182;5.398;2023-08-20T15:36:12;25.90;43.10
46652;DHT22;32377;52.182;5.398;2023-08-20T15:38:38;26.00;44.10
46652;DHT22;32377;52.182;5.398;2023-08-20T15:41:04;25.80;39.50
46652;DHT22;32377;52.182;5.398;2023-08-20T15:43:29;25.80;40.40
46652;DHT22;32377;52.182;5.398;2023-08-20T15:45:55;25.70;40.10
46652;DHT22;32377;52.182;5.398;2023-08-20T15:48:21;25.80;46.00
46652;DHT22;32377;52.182;5.398;2023-08-20T15:50:46;25.90;47.80
46652;DHT22;32377;52.182;5.398;2023-08-20T15:53:12;26.00;48.30
46652;DHT22;32377;52.182;5.398;2023-08-20T15:55:37;26.10;46.90
46652;DHT22;32377;52.182;5.398;2023-08-20T15:58:03;26.10;44.60